createdAt,value
2018-12-17T00:00:25.834Z,63.00
2018-12-17T00:02:55.851Z,63.12
2018-12-17T00:05:25.844Z,63.13
2018-12-17T00:07:55.740Z,62.74
2018-12-17T00:10:25.754Z,62.51
2018-12-17T00:12:55.640Z,62.56
2018-12-17T00:15:25.633Z,63.12
2018-12-17T00:17:55.777Z,62.98
2018-12-17T00:20:26.339Z,62.76
2018-12-17T00:22:56.236Z,63.10
2018-12-17T00:25:26.123Z,63.08
2018-12-17T00:27:56.013Z,62.78
2018-12-17T00:30:25.993Z,62.22
2018-12-17T00:32:55.877Z,62.70
2018-12-17T00:35:25.867Z,62.45
2018-12-17T00:37:55.750Z,62.90
2018-12-17T00:40:26.545Z,62.64
2018-12-17T00:42:56.671Z,62.46
2018-12-17T00:45:26.553Z,62.57
2018-12-17T00:47:56.471Z,62.34
2018-12-17T00:50:26.490Z,62.66
2018-12-17T00:52:56.411Z,62.70
2018-12-17T00:55:26.377Z,62.47
2018-12-17T00:57:56.286Z,62.74
2018-12-17T01:00:26.256Z,62.76
2018-12-17T01:02:56.244Z,62.68
2018-12-17T01:05:26.201Z,62.64
2018-12-17T01:07:56.179Z,62.77
2018-12-17T01:10:26.619Z,62.52
2018-12-17T01:12:56.490Z,62.84
2018-12-17T01:15:26.349Z,62.82
2018-12-17T01:17:56.263Z,62.70
2018-12-17T01:20:27.108Z,62.59
2018-12-17T01:22:57.069Z,62.82
2018-12-17T01:25:26.948Z,62.41
2018-12-17T01:27:56.862Z,62.57
2018-12-17T01:30:26.741Z,62.51
2018-12-17T01:32:56.835Z,62.01
2018-12-17T01:35:26.686Z,62.00
2018-12-17T01:37:56.592Z,61.81
2018-12-17T01:40:26.708Z,62.07
2018-12-17T01:42:56.659Z,62.27
2018-12-17T01:45:26.574Z,62.27
2018-12-17T01:47:56.486Z,62.53
2018-12-17T01:50:26.584Z,62.51
2018-12-17T01:52:56.457Z,62.26
2018-12-17T01:55:26.347Z,62.19
2018-12-17T01:57:56.397Z,62.18
2018-12-17T02:00:26.329Z,62.20
2018-12-17T02:02:56.324Z,61.93
2018-12-17T02:05:26.822Z,61.77
2018-12-17T02:07:56.721Z,61.76
2018-12-17T02:10:33.397Z,61.74
2018-12-17T02:13:03.308Z,62.23
2018-12-17T02:15:33.166Z,62.25
2018-12-17T02:18:03.057Z,62.40
2018-12-17T02:20:32.913Z,62.53
2018-12-17T02:23:02.808Z,62.94
2018-12-17T02:25:32.726Z,63.33
2018-12-17T02:28:02.607Z,63.75
2018-12-17T02:30:32.510Z,64.11
2018-12-17T02:33:02.407Z,65.18
2018-12-17T02:35:32.755Z,64.81
2018-12-17T02:38:02.678Z,64.59
2018-12-17T02:40:32.677Z,64.73
2018-12-17T02:43:02.526Z,65.00
2018-12-17T02:45:32.433Z,65.65
2018-12-17T02:48:02.318Z,65.65
2018-12-17T02:50:32.193Z,66.40
2018-12-17T02:53:02.094Z,66.97
2018-12-17T02:55:31.993Z,67.13
2018-12-17T02:58:01.974Z,67.78
2018-12-17T03:00:31.853Z,68.03
2018-12-17T03:03:01.765Z,68.16
2018-12-17T03:05:31.757Z,68.74
2018-12-17T03:08:01.631Z,68.51
2018-12-17T03:10:31.494Z,69.09
2018-12-17T03:13:01.385Z,68.62
2018-12-17T03:15:31.783Z,69.05
2018-12-17T03:18:01.732Z,68.91
2018-12-17T03:20:31.573Z,68.98
2018-12-17T03:23:01.484Z,68.72
2018-12-17T03:25:31.369Z,68.50
2018-12-17T03:28:01.251Z,68.12
2018-12-17T03:30:31.193Z,68.18
2018-12-17T03:33:01.039Z,68.11
2018-12-17T03:35:30.951Z,68.38
2018-12-17T03:38:00.835Z,68.17
2018-12-17T03:40:30.740Z,68.25
2018-12-17T03:43:00.662Z,67.59
2018-12-17T03:45:30.704Z,66.74
2018-12-17T03:48:00.644Z,67.01
2018-12-17T03:50:30.518Z,66.55
2018-12-17T03:53:00.456Z,66.18
2018-12-17T03:55:30.350Z,66.30
2018-12-17T03:58:00.251Z,66.14
2018-12-17T04:00:30.150Z,65.98
2018-12-17T04:03:00.071Z,65.82
2018-12-17T04:05:29.978Z,65.48
2018-12-17T04:07:59.898Z,65.83
2018-12-17T04:10:29.758Z,65.62
2018-12-17T04:12:59.653Z,65.39
2018-12-17T04:15:29.562Z,64.93
2018-12-17T04:17:59.506Z,64.52
2018-12-17T04:20:29.383Z,64.43
2018-12-17T04:22:59.396Z,65.10
2018-12-17T04:25:29.299Z,64.84
2018-12-17T04:27:59.182Z,64.99
2018-12-17T04:30:29.070Z,65.02
2018-12-17T04:32:58.961Z,65.67
2018-12-17T04:35:28.844Z,65.31
2018-12-17T04:37:58.742Z,65.37
2018-12-17T04:40:28.632Z,65.02
2018-12-17T04:42:58.534Z,64.91
2018-12-17T04:45:28.408Z,65.23
2018-12-17T04:47:58.632Z,65.23
2018-12-17T04:50:28.538Z,65.42
2018-12-17T04:52:58.408Z,65.60
2018-12-17T04:55:28.306Z,65.34
2018-12-17T04:57:58.546Z,65.22
2018-12-17T05:00:28.410Z,65.52
2018-12-17T05:02:58.288Z,65.60
2018-12-17T05:05:28.172Z,65.92
2018-12-17T05:07:58.066Z,66.22
2018-12-17T05:10:27.960Z,66.38
2018-12-17T05:12:57.844Z,66.44
2018-12-17T05:15:27.832Z,66.49
2018-12-17T05:17:57.758Z,66.60
2018-12-17T05:20:27.641Z,66.22
2018-12-17T05:22:57.540Z,66.26
2018-12-17T05:25:27.418Z,65.79
2018-12-17T05:27:57.283Z,65.79
2018-12-17T05:30:27.166Z,65.57
2018-12-17T05:32:57.116Z,65.42
2018-12-17T05:35:27.952Z,65.29
2018-12-17T05:37:58.178Z,65.29
2018-12-17T05:40:28.052Z,65.14
2018-12-17T05:42:57.930Z,65.07
2018-12-17T05:45:27.801Z,65.85
2018-12-17T05:47:57.716Z,65.64
2018-12-17T05:50:27.732Z,65.80
2018-12-17T05:52:57.627Z,65.67
2018-12-17T05:55:27.478Z,65.61
2018-12-17T05:57:57.363Z,65.78
2018-12-17T06:00:27.846Z,65.88
2018-12-17T06:02:57.707Z,66.37
2018-12-17T06:05:27.569Z,66.09
2018-12-17T06:07:57.450Z,66.36
2018-12-17T06:10:27.434Z,66.22
2018-12-17T06:12:57.316Z,66.47
2018-12-17T06:15:27.152Z,66.62
2018-12-17T06:17:57.032Z,66.53
2018-12-17T06:20:26.923Z,66.33
2018-12-17T06:22:56.811Z,66.04
2018-12-17T06:25:26.684Z,65.93
2018-12-17T06:27:56.549Z,65.69
2018-12-17T06:30:26.450Z,65.71
2018-12-17T06:32:56.304Z,65.55
2018-12-17T06:35:26.484Z,65.57
2018-12-17T06:37:56.361Z,66.12
2018-12-17T06:40:26.311Z,66.64
2018-12-17T06:42:56.164Z,66.41
2018-12-17T06:45:26.137Z,66.28
2018-12-17T06:47:55.988Z,65.89
2018-12-17T06:50:26.120Z,65.85
2018-12-17T06:52:55.971Z,66.05
2018-12-17T06:55:25.841Z,65.57
2018-12-17T06:57:55.823Z,65.27
2018-12-17T07:00:25.949Z,65.79
2018-12-17T07:02:55.852Z,66.10
2018-12-17T07:05:25.707Z,65.61
2018-12-17T07:08:02.408Z,65.82
2018-12-17T07:10:32.267Z,65.61
2018-12-17T07:13:02.395Z,65.38
2018-12-17T07:15:32.272Z,65.21
2018-12-17T07:18:02.689Z,65.42
2018-12-17T07:20:32.641Z,65.63
2018-12-17T07:23:02.679Z,65.54
2018-12-17T07:25:32.573Z,65.63
2018-12-17T07:28:02.495Z,65.30
2018-12-17T07:30:32.396Z,65.02
2018-12-17T07:33:02.286Z,64.48
2018-12-17T07:35:32.181Z,64.06
2018-12-17T07:38:02.909Z,64.52
2018-12-17T07:40:32.825Z,64.39
2018-12-17T07:43:02.707Z,64.72
2018-12-17T07:45:32.569Z,64.60
2018-12-17T07:48:02.465Z,64.55
2018-12-17T07:50:32.310Z,64.50
2018-12-17T07:53:02.221Z,64.67
2018-12-17T07:55:32.197Z,65.23
2018-12-17T07:58:02.085Z,65.31
2018-12-17T08:00:31.982Z,65.24
2018-12-17T08:03:01.833Z,65.36
2018-12-17T08:05:31.712Z,65.53
2018-12-17T08:08:01.612Z,65.56
2018-12-17T08:10:31.778Z,65.50
2018-12-17T08:13:01.996Z,65.67
2018-12-17T08:15:32.829Z,65.96
2018-12-17T08:18:33.883Z,65.78
2018-12-17T08:21:05.680Z,65.79
2018-12-17T08:23:35.522Z,65.86
2018-12-17T08:26:06.046Z,65.82
2018-12-17T08:28:35.933Z,65.87
2018-12-17T08:31:05.905Z,65.90
2018-12-17T08:33:35.820Z,65.95
2018-12-17T08:36:05.721Z,65.76
2018-12-17T08:38:35.620Z,65.72
2018-12-17T08:41:05.482Z,65.22
2018-12-17T08:43:35.394Z,65.57
2018-12-17T08:46:05.289Z,65.66
2018-12-17T08:48:35.208Z,65.47
2018-12-17T08:51:05.197Z,65.68
2018-12-17T08:53:35.423Z,65.34
2018-12-17T08:56:05.297Z,65.23
2018-12-17T08:58:35.164Z,65.23
2018-12-17T09:01:05.162Z,65.32
2018-12-17T09:03:41.795Z,65.21
2018-12-17T09:06:11.789Z,64.96
2018-12-17T09:08:41.674Z,65.05
2018-12-17T09:11:11.597Z,65.46
2018-12-17T09:13:41.506Z,65.45
2018-12-17T09:16:11.410Z,65.10
2018-12-17T09:18:41.303Z,65.13
2018-12-17T09:21:11.455Z,65.43
2018-12-17T09:23:41.321Z,65.38
2018-12-17T09:26:11.241Z,64.71
2018-12-17T09:28:41.156Z,64.73
2018-12-17T09:31:11.087Z,65.09
2018-12-17T09:33:40.998Z,64.71
2018-12-17T09:36:11.586Z,64.61
2018-12-17T09:38:41.867Z,64.64
2018-12-17T09:41:11.814Z,64.36
2018-12-17T09:43:41.761Z,64.17
2018-12-17T09:46:11.699Z,64.42
2018-12-17T09:48:41.632Z,64.00
2018-12-17T09:51:11.505Z,63.88
2018-12-17T09:53:41.401Z,63.59
2018-12-17T09:56:11.316Z,64.12
2018-12-17T09:58:41.238Z,64.03
2018-12-17T10:01:11.106Z,64.69
2018-12-17T10:03:41.842Z,64.35
2018-12-17T10:06:11.961Z,63.76
2018-12-17T10:08:41.853Z,64.01
2018-12-17T10:11:11.848Z,64.32
2018-12-17T10:13:42.092Z,64.84
2018-12-17T10:16:11.961Z,64.77
2018-12-17T10:18:41.869Z,65.33
2018-12-17T10:21:11.921Z,65.09
2018-12-17T10:23:41.876Z,65.25
2018-12-17T10:26:12.157Z,64.78
2018-12-17T10:28:42.076Z,64.78
2018-12-17T10:31:12.428Z,64.47
2018-12-17T10:33:42.403Z,64.66
2018-12-17T10:36:12.395Z,64.18
2018-12-17T10:38:42.417Z,64.67
2018-12-17T10:41:12.385Z,64.76
2018-12-17T10:43:42.322Z,64.07
2018-12-17T10:46:12.330Z,64.47
2018-12-17T10:48:42.788Z,63.92
2018-12-17T10:51:12.620Z,64.48
2018-12-17T10:53:42.550Z,65.25
2018-12-17T10:56:12.495Z,65.15
2018-12-17T10:58:42.472Z,65.18
2018-12-17T11:01:17.804Z,65.29
2018-12-17T11:03:55.690Z,65.51
2018-12-17T11:06:25.891Z,65.09
2018-12-17T11:08:56.732Z,65.14
2018-12-17T11:11:26.630Z,65.46
2018-12-17T11:13:57.698Z,64.66
2018-12-17T11:16:28.112Z,65.12
2018-12-17T11:18:58.531Z,65.13
2018-12-17T11:21:28.571Z,65.07
2018-12-17T11:23:58.511Z,64.78
2018-12-17T11:26:28.500Z,64.37
2018-12-17T11:28:58.782Z,64.42
2018-12-17T11:31:29.310Z,64.16
2018-12-17T11:33:59.216Z,64.85
2018-12-17T11:36:29.413Z,64.66
2018-12-17T11:39:01.873Z,64.57
2018-12-17T11:41:31.729Z,64.91
2018-12-17T11:44:01.771Z,64.30
2018-12-17T11:46:31.685Z,64.83
2018-12-17T11:49:01.579Z,64.53
2018-12-17T11:51:31.519Z,64.79
2018-12-17T11:54:01.394Z,64.47
2018-12-17T11:56:46.888Z,64.22
2018-12-17T11:59:16.748Z,63.69
2018-12-17T12:01:46.741Z,63.89
2018-12-17T12:04:17.594Z,63.94
2018-12-17T12:06:47.428Z,63.87
2018-12-17T12:09:21.531Z,63.31
2018-12-17T12:11:51.464Z,63.74
2018-12-17T12:14:21.739Z,63.76
2018-12-17T12:16:51.982Z,63.34
2018-12-17T12:19:21.890Z,63.57
2018-12-17T12:21:51.800Z,63.85
2018-12-17T12:24:21.717Z,63.77
2018-12-17T12:26:51.725Z,63.30
2018-12-17T12:29:21.943Z,63.16
2018-12-17T12:31:52.729Z,62.90
2018-12-17T12:34:23.042Z,63.18
2018-12-17T12:36:52.911Z,63.29
2018-12-17T12:39:22.826Z,63.33
2018-12-17T12:41:52.725Z,62.92
2018-12-17T12:44:22.688Z,63.31
2018-12-17T12:46:52.616Z,62.61
2018-12-17T12:49:22.738Z,62.63
2018-12-17T12:51:52.806Z,62.49
2018-12-17T12:54:23.390Z,62.52
2018-12-17T12:56:53.295Z,62.22
2018-12-17T12:59:23.313Z,62.52
2018-12-17T13:01:53.397Z,62.16
2018-12-17T13:04:23.355Z,62.20
2018-12-17T13:06:54.642Z,62.08
2018-12-17T13:09:24.522Z,62.49
2018-12-17T13:11:54.609Z,62.79
2018-12-17T13:14:24.880Z,62.28
2018-12-17T13:16:55.237Z,62.75
2018-12-17T13:19:25.169Z,62.27
2018-12-17T13:21:55.127Z,62.29
2018-12-17T13:24:26.017Z,61.73
2018-12-17T13:26:56.171Z,62.17
2018-12-17T13:29:26.106Z,62.40
2018-12-17T13:31:55.989Z,62.67
2018-12-17T13:34:25.914Z,62.78
2018-12-17T13:36:55.893Z,62.88
2018-12-17T13:39:25.880Z,63.04
2018-12-17T13:41:55.918Z,62.79
2018-12-17T13:44:26.911Z,62.83
2018-12-17T13:46:57.252Z,63.07
2018-12-17T13:49:27.266Z,63.09
2018-12-17T13:52:02.578Z,63.22
2018-12-17T13:54:32.662Z,63.38
2018-12-17T13:57:02.656Z,63.00
2018-12-17T13:59:32.503Z,62.96
2018-12-17T14:02:02.495Z,63.38
2018-12-17T14:04:32.455Z,63.11
2018-12-17T14:07:02.776Z,63.17
2018-12-17T14:09:34.754Z,63.06
2018-12-17T14:12:04.652Z,62.97
2018-12-17T14:14:34.575Z,63.31
2018-12-17T14:17:09.912Z,63.15
2018-12-17T14:19:41.767Z,63.02
2018-12-17T14:22:11.708Z,63.36
2018-12-17T14:24:41.921Z,63.44
2018-12-17T14:27:11.899Z,63.67
2018-12-17T14:29:41.794Z,63.61
2018-12-17T14:32:12.390Z,63.84
2018-12-17T14:34:42.461Z,64.05
2018-12-17T14:37:12.848Z,63.60
2018-12-17T14:39:42.693Z,63.74
2018-12-17T14:42:12.540Z,64.06
2018-12-17T14:44:42.407Z,64.13
2018-12-17T14:47:12.941Z,63.74
2018-12-17T14:49:42.768Z,64.11
2018-12-17T14:52:12.694Z,64.20
2018-12-17T14:54:43.011Z,64.49
2018-12-17T14:57:13.515Z,64.73
2018-12-17T14:59:43.455Z,64.33
2018-12-17T15:02:13.831Z,64.29
2018-12-17T15:04:43.739Z,64.60
2018-12-17T15:07:13.727Z,64.62
2018-12-17T15:09:43.571Z,64.82
2018-12-17T15:12:13.555Z,64.83
2018-12-17T15:14:44.082Z,64.57
2018-12-17T15:17:14.240Z,65.08
2018-12-17T15:19:44.177Z,64.83
2018-12-17T15:22:14.340Z,64.72
2018-12-17T15:24:44.209Z,65.43
2018-12-17T15:27:14.892Z,65.20
2018-12-17T15:29:44.907Z,65.29
2018-12-17T15:32:14.864Z,65.43
2018-12-17T15:34:44.777Z,65.47
2018-12-17T15:37:14.701Z,65.46
2018-12-17T15:39:45.414Z,65.75
2018-12-17T15:42:16.316Z,65.63
2018-12-17T15:44:46.311Z,66.03
2018-12-17T15:47:16.241Z,66.30
2018-12-17T15:49:46.351Z,66.31
2018-12-17T15:52:16.231Z,66.26
2018-12-17T15:54:46.850Z,66.32
2018-12-17T15:57:16.754Z,66.20
2018-12-17T15:59:46.667Z,66.19
2018-12-17T16:02:16.593Z,66.17
2018-12-17T16:04:46.527Z,65.99
2018-12-17T16:07:16.469Z,66.15
2018-12-17T16:09:46.825Z,66.54
2018-12-17T16:12:16.794Z,66.40
2018-12-17T16:14:47.425Z,66.58
2018-12-17T16:17:17.388Z,66.32
2018-12-17T16:19:47.365Z,66.15
2018-12-17T16:22:18.111Z,66.43
2018-12-17T16:24:47.994Z,66.25
2018-12-17T16:27:19.469Z,66.07
2018-12-17T16:29:49.704Z,66.35
2018-12-17T16:32:20.133Z,66.21
2018-12-17T16:34:50.053Z,66.34
2018-12-17T16:37:20.532Z,66.53
2018-12-17T16:39:50.645Z,66.06
2018-12-17T16:42:20.973Z,66.26
2018-12-17T16:44:50.878Z,66.53
2018-12-17T16:47:20.959Z,66.67
2018-12-17T16:49:52.208Z,66.65
2018-12-17T16:52:22.626Z,66.24
2018-12-17T16:54:53.827Z,66.57
2018-12-17T16:57:24.884Z,66.41
2018-12-17T16:59:56.292Z,66.42
2018-12-17T17:02:30.792Z,66.46
2018-12-17T17:05:01.640Z,66.20
2018-12-17T17:07:31.584Z,66.42
2018-12-17T17:10:07.052Z,66.39
2018-12-17T17:12:37.050Z,66.20
2018-12-17T17:15:11.035Z,66.38
2018-12-17T17:17:41.121Z,66.36
2018-12-17T17:20:11.099Z,66.96
2018-12-17T17:22:42.012Z,66.90
2018-12-17T17:25:11.948Z,67.16
2018-12-17T17:27:42.092Z,66.85
2018-12-17T17:30:12.869Z,67.36
2018-12-17T17:32:42.844Z,67.50
2018-12-17T17:35:13.307Z,67.50
2018-12-17T17:37:43.551Z,67.32
2018-12-17T17:40:13.845Z,67.15
2018-12-17T17:42:43.895Z,67.52
2018-12-17T17:45:13.947Z,67.36
2018-12-17T17:47:43.867Z,67.56
2018-12-17T17:50:13.803Z,68.25
2018-12-17T17:52:43.762Z,67.76
2018-12-17T17:55:14.343Z,67.54
2018-12-17T17:57:44.517Z,67.54
2018-12-17T18:00:14.679Z,67.51
2018-12-17T18:02:44.943Z,67.59
2018-12-17T18:05:21.014Z,68.13
2018-12-17T18:07:52.942Z,67.88
2018-12-17T18:10:23.091Z,68.10
2018-12-17T18:12:53.542Z,68.43
2018-12-17T18:15:24.000Z,68.65
2018-12-17T18:17:55.198Z,68.62
2018-12-17T18:20:25.581Z,68.77
2018-12-17T18:22:56.172Z,68.62
2018-12-17T18:25:26.363Z,69.03
2018-12-17T18:27:56.905Z,69.09
2018-12-17T18:30:27.228Z,68.91
2018-12-17T18:32:57.439Z,68.87
2018-12-17T18:35:27.992Z,68.90
2018-12-17T18:37:58.183Z,69.10
2018-12-17T18:40:28.132Z,69.38
2018-12-17T18:42:58.407Z,68.87
2018-12-17T18:45:29.749Z,69.13
2018-12-17T18:48:00.020Z,69.32
2018-12-17T18:50:30.229Z,69.19
2018-12-17T18:53:00.338Z,68.93
2018-12-17T18:55:30.396Z,68.76
2018-12-17T18:58:00.374Z,69.26
2018-12-17T19:00:30.627Z,69.15
2018-12-17T19:03:01.413Z,69.05
2018-12-17T19:05:31.682Z,68.84
2018-12-17T19:08:01.796Z,68.88
2018-12-17T19:10:37.094Z,68.78
2018-12-17T19:13:07.140Z,68.82
2018-12-17T19:15:37.130Z,68.77
2018-12-17T19:18:07.383Z,68.84
2018-12-17T19:20:37.424Z,69.08
2018-12-17T19:23:07.465Z,68.71
2018-12-17T19:25:38.948Z,68.60
2018-12-17T19:28:09.237Z,68.63
2018-12-17T19:30:40.138Z,68.86
2018-12-17T19:33:10.193Z,68.67
2018-12-17T19:35:41.196Z,68.51
2018-12-17T19:38:11.376Z,68.49
2018-12-17T19:40:41.483Z,68.42
2018-12-17T19:43:12.013Z,68.47
2018-12-17T19:45:42.044Z,68.63
2018-12-17T19:48:12.156Z,68.74
2018-12-17T19:50:42.106Z,68.85
2018-12-17T19:53:13.082Z,68.50
2018-12-17T19:55:43.178Z,68.24
2018-12-17T19:58:14.093Z,68.28
2018-12-17T20:00:45.190Z,68.73
2018-12-17T20:03:16.279Z,68.29
2018-12-17T20:05:46.994Z,68.20
2018-12-17T20:08:17.130Z,68.52
2018-12-17T20:10:47.440Z,68.41
2018-12-17T20:13:17.870Z,68.16
2018-12-17T20:15:48.044Z,68.21
2018-12-17T20:18:18.156Z,68.65
2018-12-17T20:20:48.400Z,68.19
2018-12-17T20:23:18.770Z,68.37
2018-12-17T20:25:48.784Z,69.00
2018-12-17T20:28:18.904Z,68.69
2018-12-17T20:30:49.530Z,68.67
2018-12-17T20:33:20.006Z,68.78
2018-12-17T20:35:50.770Z,69.04
2018-12-17T20:38:21.481Z,69.17
2018-12-17T20:40:51.677Z,69.65
2018-12-17T20:43:22.019Z,69.50
2018-12-17T20:45:52.375Z,69.47
2018-12-17T20:48:23.324Z,69.81
2018-12-17T20:50:53.842Z,69.83
2018-12-17T20:53:25.885Z,69.64
2018-12-17T20:55:56.896Z,69.64
2018-12-17T20:58:27.050Z,69.73
2018-12-17T21:00:57.190Z,69.59
2018-12-17T21:03:27.341Z,69.57
2018-12-17T21:05:59.319Z,70.05
2018-12-17T21:08:30.134Z,69.83
2018-12-17T21:11:00.257Z,69.96
2018-12-17T21:13:30.319Z,70.21
2018-12-17T21:16:00.539Z,69.57
2018-12-17T21:18:30.959Z,69.77
2018-12-17T21:21:01.003Z,69.89
2018-12-17T21:23:31.427Z,69.61
2018-12-17T21:26:01.906Z,69.77
2018-12-17T21:28:32.030Z,69.53
2018-12-17T21:31:02.742Z,69.18
2018-12-17T21:33:32.787Z,69.54
2018-12-17T21:36:03.317Z,69.22
2018-12-17T21:38:34.144Z,69.02
2018-12-17T21:41:04.456Z,69.11
2018-12-17T21:43:36.104Z,68.79
2018-12-17T21:46:06.306Z,68.73
2018-12-17T21:48:36.714Z,68.94
2018-12-17T21:51:06.662Z,68.93
2018-12-17T21:53:37.170Z,68.96
2018-12-17T21:56:07.067Z,68.82
2018-12-17T21:58:37.094Z,68.91
2018-12-17T22:01:07.253Z,69.05
2018-12-17T22:03:37.319Z,68.65
2018-12-17T22:06:07.321Z,68.88
2018-12-17T22:08:37.325Z,68.88
2018-12-17T22:11:07.223Z,68.75
2018-12-17T22:13:37.751Z,68.76
2018-12-17T22:16:07.646Z,68.42
2018-12-17T22:18:37.650Z,68.62
2018-12-17T22:21:07.531Z,68.21
2018-12-17T22:23:38.602Z,68.01
2018-12-17T22:26:08.545Z,67.93
2018-12-17T22:28:38.602Z,68.04
2018-12-17T22:31:08.628Z,67.46
2018-12-17T22:33:38.739Z,67.58
2018-12-17T22:36:09.628Z,67.65
2018-12-17T22:38:39.732Z,67.66
2018-12-17T22:41:09.724Z,67.50
2018-12-17T22:43:39.764Z,68.29
2018-12-17T22:46:09.763Z,67.92
2018-12-17T22:48:39.921Z,67.80
2018-12-17T22:51:09.842Z,67.55
2018-12-17T22:53:39.793Z,68.25
2018-12-17T22:56:09.675Z,68.05
2018-12-17T22:58:42.452Z,68.26
2018-12-17T23:01:11.732Z,68.54
2018-12-17T23:03:41.639Z,68.39
2018-12-17T23:06:11.494Z,68.10
2018-12-17T23:09:15.666Z,68.10
2018-12-17T23:12:02.133Z,67.84
2018-12-17T23:14:43.314Z,67.58
2018-12-17T23:17:24.426Z,68.10
2018-12-17T23:19:54.431Z,67.95
2018-12-17T23:22:24.330Z,68.07
2018-12-17T23:24:54.192Z,67.64
2018-12-17T23:27:24.695Z,67.63
2018-12-17T23:29:54.649Z,67.80
2018-12-17T23:32:28.261Z,67.88
2018-12-17T23:34:58.133Z,67.39
2018-12-17T23:37:28.169Z,67.08
2018-12-17T23:39:58.605Z,67.17
2018-12-17T23:42:29.259Z,66.97
2018-12-17T23:44:59.551Z,67.06
2018-12-17T23:47:29.625Z,67.00
2018-12-17T23:49:59.455Z,66.78
2018-12-17T23:52:30.366Z,66.79
2018-12-17T23:55:00.730Z,66.85
2018-12-17T23:57:30.757Z,66.69
